Terminal Aerodrome Forecast
Issued by NWS New Orleans/Baton Rouge, LA

Home | Current Version | Previous Version | Text Only | Print | Product List | Glossary On
Versions: 1 2 3 4 5 6 7 8 9 10 11 12 13 14 15 16 17 18
000
FTUS44 KLIX 221513 AAA
TAFBTR
TAF AMD
KBTR 221513Z 2215/2312 13007KT 6SM HZ BKN013 BKN030 BKN035
     FM221600 16010KT P6SM SCT020 BKN035
     FM230100 15007KT P6SM BKN015 BKN060
     FM230700 14005KT P6SM BKN010 BKN015
      TEMPO 2309/2312 5SM BR BKN003=

USA.gov is the U.S. government's official web portal to all federal, state and local government web resources and services.